AMU9933 ZGGG-VMMC
Flight info
| Callsign | AMU9933 |
|---|---|
| Flight time | 0h 25m |
| Altitude | 12800 |
| Route | POU W7 SAREX W6 LATOP |
| Aircraft | A321/M-SDE3FGHIRWY/LB1 |
Departure
| Time | 2026-04-26 05:54 |
|---|---|
| Airport | Guangzhou Baiyun International Airport (ZGGG) |
Arrival
| Time | 2026-04-26 06:19 |
|---|---|
| Airport | Macau International Airport (VMMC) |
| Time | Latitude | Longitude | Altitude | Speed | Heading |
|---|---|---|---|---|---|
| 2026-04-26 05:12 | 23.38754 | 113.30191 | 59 ft | 0 kts | 28° |
| 2026-04-26 05:37 | 23.38749 | 113.30188 | 58 ft | 3 kts | 28° |
| 2026-04-26 05:37 | 23.38733 | 113.30179 | 57 ft | 3 kts | 28° |
| 2026-04-26 05:38 | 23.38716 | 113.30169 | 52 ft | 3 kts | 28° |
| 2026-04-26 05:38 | 23.38700 | 113.30157 | 57 ft | 3 kts | 55° |
| 2026-04-26 05:38 | 23.38691 | 113.30138 | 54 ft | 3 kts | 86° |
| 2026-04-26 05:38 | 23.38694 | 113.30117 | 52 ft | 2 kts | 112° |
| 2026-04-26 05:39 | 23.38695 | 113.30114 | 52 ft | 0 kts | 112° |
| 2026-04-26 05:45 | 23.38693 | 113.30118 | 52 ft | 2 kts | 112° |
| 2026-04-26 05:45 | 23.38683 | 113.30138 | 52 ft | 4 kts | 121° |
| 2026-04-26 05:45 | 23.38658 | 113.30182 | 52 ft | 8 kts | 122° |
| 2026-04-26 05:46 | 23.38625 | 113.30243 | 54 ft | 10 kts | 117° |
| 2026-04-26 05:46 | 23.38592 | 113.30320 | 56 ft | 12 kts | 114° |
| 2026-04-26 05:46 | 23.38533 | 113.30387 | 57 ft | 13 kts | 165° |
| 2026-04-26 05:46 | 23.38438 | 113.30366 | 55 ft | 15 kts | 196° |
| 2026-04-26 05:47 | 23.38332 | 113.30336 | 57 ft | 17 kts | 194° |
| 2026-04-26 05:47 | 23.38214 | 113.30305 | 57 ft | 18 kts | 193° |
| 2026-04-26 05:47 | 23.38086 | 113.30271 | 56 ft | 20 kts | 194° |
| 2026-04-26 05:47 | 23.37948 | 113.30234 | 54 ft | 20 kts | 194° |
| 2026-04-26 05:48 | 23.37874 | 113.30187 | 51 ft | 12 kts | 252° |
| 2026-04-26 05:48 | 23.37889 | 113.30095 | 55 ft | 13 kts | 284° |
| 2026-04-26 05:48 | 23.37913 | 113.29992 | 52 ft | 15 kts | 284° |
| 2026-04-26 05:48 | 23.37939 | 113.29876 | 58 ft | 17 kts | 284° |
| 2026-04-26 05:49 | 23.37968 | 113.29749 | 58 ft | 18 kts | 284° |
| 2026-04-26 05:49 | 23.38032 | 113.29465 | 52 ft | 21 kts | 283° |
| 2026-04-26 05:49 | 23.38067 | 113.29309 | 58 ft | 22 kts | 284° |
| 2026-04-26 05:50 | 23.38106 | 113.29144 | 56 ft | 23 kts | 285° |
| 2026-04-26 05:50 | 23.38145 | 113.28971 | 56 ft | 24 kts | 283° |
| 2026-04-26 05:50 | 23.38178 | 113.28826 | 56 ft | 17 kts | 285° |
| 2026-04-26 05:50 | 23.38200 | 113.28719 | 56 ft | 11 kts | 269° |
| 2026-04-26 05:51 | 23.38143 | 113.28667 | 54 ft | 12 kts | 196° |
| 2026-04-26 05:51 | 23.38055 | 113.28642 | 52 ft | 14 kts | 194° |
| 2026-04-26 05:51 | 23.37955 | 113.28615 | 56 ft | 16 kts | 194° |
| 2026-04-26 05:51 | 23.37843 | 113.28586 | 53 ft | 18 kts | 193° |
| 2026-04-26 05:52 | 23.37722 | 113.28553 | 57 ft | 16 kts | 196° |
| 2026-04-26 05:52 | 23.37676 | 113.28499 | 55 ft | 9 kts | 262° |
| 2026-04-26 05:52 | 23.37690 | 113.28425 | 57 ft | 11 kts | 286° |
| 2026-04-26 05:52 | 23.37709 | 113.28367 | 57 ft | 3 kts | 311° |
| 2026-04-26 05:53 | 23.37733 | 113.28363 | 56 ft | 4 kts | 11° |
| 2026-04-26 05:53 | 23.37739 | 113.28365 | 58 ft | 0 kts | 12° |
| 2026-04-26 05:53 | 23.37740 | 113.28365 | 59 ft | 2 kts | 12° |
| 2026-04-26 05:53 | 23.37983 | 113.28431 | 55 ft | 77 kts | 14° |
| 2026-04-26 05:54 | 23.38757 | 113.28640 | 56 ft | 146 kts | 14° |
| 2026-04-26 05:54 | 23.39870 | 113.28942 | 357 ft | 172 kts | 14° |
| 2026-04-26 05:54 | 23.41045 | 113.29269 | 1118 ft | 173 kts | 15° |
| 2026-04-26 05:54 | 23.42221 | 113.29582 | 1919 ft | 174 kts | 13° |
| 2026-04-26 05:55 | 23.43395 | 113.29878 | 2686 ft | 172 kts | 12° |
| 2026-04-26 05:55 | 23.44660 | 113.29944 | 3040 ft | 198 kts | 353° |
| 2026-04-26 05:55 | 23.46092 | 113.29430 | 3029 ft | 235 kts | 335° |
| 2026-04-26 05:55 | 23.47648 | 113.28691 | 2923 ft | 249 kts | 336° |
| 2026-04-26 05:56 | 23.49237 | 113.27968 | 2939 ft | 248 kts | 337° |
| 2026-04-26 05:56 | 23.50846 | 113.27263 | 2991 ft | 250 kts | 338° |
| 2026-04-26 05:56 | 23.52461 | 113.26562 | 3001 ft | 250 kts | 337° |
| 2026-04-26 05:56 | 23.54132 | 113.25955 | 3015 ft | 262 kts | 342° |
| 2026-04-26 05:57 | 23.55916 | 113.25389 | 3602 ft | 273 kts | 343° |
| 2026-04-26 05:57 | 23.57776 | 113.24811 | 4596 ft | 275 kts | 341° |
| 2026-04-26 05:57 | 23.59453 | 113.23847 | 5397 ft | 280 kts | 320° |
| 2026-04-26 05:57 | 23.60806 | 113.22299 | 6190 ft | 283 kts | 309° |
| 2026-04-26 05:58 | 23.62099 | 113.20678 | 7028 ft | 284 kts | 309° |
| 2026-04-26 05:58 | 23.63406 | 113.19053 | 7812 ft | 286 kts | 308° |
| 2026-04-26 05:58 | 23.64298 | 113.17112 | 8582 ft | 286 kts | 280° |
| 2026-04-26 05:58 | 23.64261 | 113.14967 | 9342 ft | 287 kts | 258° |
| 2026-04-26 05:59 | 23.63487 | 113.12958 | 10033 ft | 291 kts | 235° |
| 2026-04-26 05:59 | 23.62028 | 113.11461 | 10580 ft | 297 kts | 211° |
| 2026-04-26 05:59 | 23.60034 | 113.10735 | 10752 ft | 317 kts | 186° |
| 2026-04-26 05:59 | 23.57780 | 113.11069 | 10807 ft | 344 kts | 159° |
| 2026-04-26 06:00 | 23.55565 | 113.12221 | 10815 ft | 357 kts | 154° |
| 2026-04-26 06:00 | 23.53335 | 113.13457 | 10803 ft | 366 kts | 154° |
| 2026-04-26 06:00 | 23.51005 | 113.14758 | 10798 ft | 385 kts | 154° |
| 2026-04-26 06:00 | 23.48593 | 113.16098 | 10811 ft | 391 kts | 154° |
| 2026-04-26 06:01 | 23.46156 | 113.17424 | 10809 ft | 392 kts | 154° |
| 2026-04-26 06:01 | 23.43711 | 113.18737 | 10798 ft | 392 kts | 155° |
| 2026-04-26 06:01 | 23.41258 | 113.20042 | 10799 ft | 392 kts | 155° |
| 2026-04-26 06:01 | 23.38807 | 113.21339 | 10810 ft | 392 kts | 155° |
| 2026-04-26 06:02 | 23.36350 | 113.22641 | 10826 ft | 392 kts | 155° |
| 2026-04-26 06:02 | 23.33902 | 113.23945 | 10799 ft | 392 kts | 155° |
| 2026-04-26 06:02 | 23.31450 | 113.25257 | 10800 ft | 392 kts | 154° |
| 2026-04-26 06:02 | 23.29005 | 113.26565 | 10804 ft | 392 kts | 155° |
| 2026-04-26 06:03 | 23.26555 | 113.27876 | 10818 ft | 392 kts | 154° |
| 2026-04-26 06:03 | 23.24103 | 113.29185 | 10815 ft | 393 kts | 155° |
| 2026-04-26 06:03 | 23.21651 | 113.30491 | 10818 ft | 393 kts | 155° |
| 2026-04-26 06:03 | 23.19197 | 113.31798 | 10821 ft | 393 kts | 154° |
| 2026-04-26 06:04 | 23.16748 | 113.33107 | 10845 ft | 393 kts | 154° |
| 2026-04-26 06:04 | 23.14321 | 113.34401 | 10820 ft | 392 kts | 155° |
| 2026-04-26 06:04 | 23.11873 | 113.35702 | 10811 ft | 392 kts | 155° |
| 2026-04-26 06:04 | 23.09605 | 113.36907 | 10807 ft | 392 kts | 155° |
| 2026-04-26 06:05 | 23.07150 | 113.38214 | 10805 ft | 392 kts | 154° |
| 2026-04-26 06:05 | 23.04698 | 113.39524 | 10796 ft | 393 kts | 154° |
| 2026-04-26 06:05 | 23.02240 | 113.40839 | 10802 ft | 393 kts | 154° |
| 2026-04-26 06:05 | 22.99791 | 113.42145 | 10820 ft | 392 kts | 154° |
| 2026-04-26 06:06 | 22.97342 | 113.43446 | 10825 ft | 392 kts | 155° |
| 2026-04-26 06:06 | 22.94890 | 113.44751 | 10805 ft | 392 kts | 154° |
| 2026-04-26 06:06 | 22.92535 | 113.46008 | 10774 ft | 370 kts | 154° |
| 2026-04-26 06:06 | 22.90294 | 113.47203 | 10799 ft | 347 kts | 155° |
| 2026-04-26 06:07 | 22.88148 | 113.48209 | 10801 ft | 326 kts | 162° |
| 2026-04-26 06:07 | 22.86018 | 113.48827 | 10780 ft | 308 kts | 169° |
| 2026-04-26 06:07 | 22.83947 | 113.49287 | 10776 ft | 302 kts | 169° |
| 2026-04-26 06:07 | 22.81895 | 113.49744 | 10784 ft | 301 kts | 169° |
| 2026-04-26 06:08 | 22.79841 | 113.50201 | 10788 ft | 301 kts | 169° |
| 2026-04-26 06:08 | 22.77787 | 113.50658 | 10714 ft | 302 kts | 169° |
| 2026-04-26 06:08 | 22.75741 | 113.51115 | 10433 ft | 299 kts | 169° |
| 2026-04-26 06:08 | 22.73727 | 113.51566 | 10345 ft | 294 kts | 169° |
| 2026-04-26 06:09 | 22.71709 | 113.52019 | 10242 ft | 295 kts | 169° |
| 2026-04-26 06:09 | 22.69698 | 113.52475 | 9834 ft | 295 kts | 169° |
| 2026-04-26 06:09 | 22.67693 | 113.52927 | 9436 ft | 294 kts | 169° |
| 2026-04-26 06:09 | 22.65706 | 113.53371 | 9166 ft | 286 kts | 169° |
| 2026-04-26 06:10 | 22.63781 | 113.53797 | 8934 ft | 280 kts | 169° |
| 2026-04-26 06:10 | 22.61911 | 113.54213 | 8624 ft | 277 kts | 169° |
| 2026-04-26 06:10 | 22.60032 | 113.54633 | 8278 ft | 274 kts | 169° |
| 2026-04-26 06:10 | 22.58168 | 113.55049 | 7934 ft | 272 kts | 169° |
| 2026-04-26 06:11 | 22.56315 | 113.55465 | 7601 ft | 271 kts | 169° |
| 2026-04-26 06:11 | 22.54476 | 113.55872 | 7207 ft | 271 kts | 169° |
| 2026-04-26 06:11 | 22.52623 | 113.56304 | 6986 ft | 275 kts | 167° |
| 2026-04-26 06:11 | 22.50756 | 113.56845 | 6595 ft | 279 kts | 165° |
| 2026-04-26 06:12 | 22.48889 | 113.57453 | 6188 ft | 279 kts | 163° |
| 2026-04-26 06:12 | 22.47038 | 113.58076 | 5816 ft | 277 kts | 164° |
| 2026-04-26 06:12 | 22.45215 | 113.58689 | 5434 ft | 271 kts | 164° |
| 2026-04-26 06:12 | 22.43424 | 113.59283 | 4679 ft | 269 kts | 164° |
| 2026-04-26 06:13 | 22.41636 | 113.59867 | 3929 ft | 268 kts | 164° |
| 2026-04-26 06:13 | 22.39872 | 113.60437 | 3265 ft | 263 kts | 164° |
| 2026-04-26 06:13 | 22.38161 | 113.60984 | 2921 ft | 247 kts | 164° |
| 2026-04-26 06:13 | 22.36564 | 113.61490 | 2535 ft | 231 kts | 163° |
| 2026-04-26 06:14 | 22.35093 | 113.61958 | 2507 ft | 210 kts | 163° |
| 2026-04-26 06:14 | 22.33773 | 113.62382 | 2499 ft | 186 kts | 163° |
| 2026-04-26 06:14 | 22.32603 | 113.62761 | 2488 ft | 167 kts | 163° |
| 2026-04-26 06:14 | 22.31881 | 113.62995 | 2514 ft | 159 kts | 163° |
| 2026-04-26 06:15 | 22.30528 | 113.63432 | 2506 ft | 150 kts | 163° |
| 2026-04-26 06:15 | 22.29532 | 113.63727 | 2494 ft | 148 kts | 171° |
| 2026-04-26 06:15 | 22.28510 | 113.63734 | 2502 ft | 147 kts | 188° |
| 2026-04-26 06:15 | 22.27556 | 113.63342 | 2460 ft | 148 kts | 213° |
| 2026-04-26 06:16 | 22.26705 | 113.62716 | 2272 ft | 147 kts | 214° |
| 2026-04-26 06:16 | 22.26144 | 113.62300 | 2136 ft | 147 kts | 214° |
| 2026-04-26 06:16 | 22.25021 | 113.61467 | 1861 ft | 146 kts | 213° |
| 2026-04-26 06:16 | 22.24466 | 113.61054 | 1743 ft | 147 kts | 214° |
| 2026-04-26 06:17 | 22.23625 | 113.60428 | 1540 ft | 146 kts | 213° |
| 2026-04-26 06:17 | 22.22788 | 113.59801 | 1349 ft | 147 kts | 212° |
| 2026-04-26 06:17 | 22.21947 | 113.59177 | 1167 ft | 146 kts | 213° |
| 2026-04-26 06:17 | 22.21108 | 113.58553 | 986 ft | 145 kts | 213° |
| 2026-04-26 06:18 | 22.20263 | 113.57958 | 787 ft | 143 kts | 201° |
| 2026-04-26 06:18 | 22.19309 | 113.57811 | 633 ft | 138 kts | 181° |
| 2026-04-26 06:18 | 22.18360 | 113.57851 | 432 ft | 135 kts | 166° |
| 2026-04-26 06:18 | 22.17477 | 113.58197 | 283 ft | 135 kts | 159° |
| 2026-04-26 06:19 | 22.16587 | 113.58539 | 174 ft | 137 kts | 160° |
| 2026-04-26 06:19 | 22.15688 | 113.58867 | 38 ft | 134 kts | 160° |
| 2026-04-26 06:19 | 22.14923 | 113.59151 | 29 ft | 93 kts | 161° |
| 2026-04-26 06:19 | 22.14464 | 113.59324 | 28 ft | 49 kts | 159° |
| 2026-04-26 06:20 | 22.14232 | 113.59406 | 29 ft | 17 kts | 173° |
| 2026-04-26 06:20 | 22.14150 | 113.59362 | 29 ft | 13 kts | 245° |
| 2026-04-26 06:20 | 22.14138 | 113.59284 | 29 ft | 0 kts | 280° |
| 2026-04-26 06:21 | 22.14139 | 113.59275 | 29 ft | 3 kts | 283° |
| 2026-04-26 06:21 | 22.14155 | 113.59255 | 29 ft | 5 kts | 317° |
| 2026-04-26 06:22 | 22.14199 | 113.59228 | 29 ft | 9 kts | 341° |
| 2026-04-26 06:22 | 22.14263 | 113.59207 | 28 ft | 11 kts | 343° |
| 2026-04-26 06:22 | 22.14343 | 113.59179 | 28 ft | 14 kts | 342° |
| 2026-04-26 06:22 | 22.14438 | 113.59144 | 28 ft | 15 kts | 341° |
| 2026-04-26 06:23 | 22.14546 | 113.59104 | 28 ft | 17 kts | 341° |
| 2026-04-26 06:23 | 22.14666 | 113.59060 | 29 ft | 19 kts | 341° |
| 2026-04-26 06:23 | 22.14752 | 113.58999 | 29 ft | 15 kts | 305° |
| 2026-04-26 06:23 | 22.14813 | 113.58899 | 29 ft | 17 kts | 304° |
| 2026-04-26 06:24 | 22.14882 | 113.58787 | 29 ft | 19 kts | 303° |
| 2026-04-26 06:24 | 22.14953 | 113.58670 | 29 ft | 13 kts | 303° |
| 2026-04-26 06:24 | 22.15008 | 113.58582 | 29 ft | 15 kts | 304° |
| 2026-04-26 06:24 | 22.15071 | 113.58480 | 29 ft | 17 kts | 303° |
| 2026-04-26 06:25 | 22.15140 | 113.58370 | 29 ft | 19 kts | 303° |
| 2026-04-26 06:25 | 22.15215 | 113.58246 | 29 ft | 21 kts | 303° |
| 2026-04-26 06:25 | 22.15297 | 113.58114 | 29 ft | 22 kts | 305° |
| 2026-04-26 06:25 | 22.15370 | 113.57997 | 29 ft | 17 kts | 304° |
| 2026-04-26 06:26 | 22.15438 | 113.57888 | 29 ft | 18 kts | 304° |
| 2026-04-26 06:26 | 22.15514 | 113.57767 | 29 ft | 20 kts | 303° |
| 2026-04-26 06:26 | 22.15591 | 113.57637 | 29 ft | 18 kts | 301° |
| 2026-04-26 06:26 | 22.15652 | 113.57592 | 29 ft | 11 kts | 10° |
| 2026-04-26 06:27 | 22.15716 | 113.57645 | 29 ft | 13 kts | 34° |
| 2026-04-26 06:27 | 22.15804 | 113.57685 | 29 ft | 13 kts | 15° |
| 2026-04-26 06:27 | 22.15841 | 113.57674 | 29 ft | 1 kts | 302° |
| 2026-04-26 06:27 | 22.15846 | 113.57663 | 29 ft | 3 kts | 295° |
| 2026-04-26 06:28 | 22.15854 | 113.57635 | 29 ft | 1 kts | 286° |
| 2026-04-26 06:28 | 22.15857 | 113.57624 | 29 ft | 0 kts | 284° |
| 2026-04-26 06:28 | 22.15857 | 113.57623 | 29 ft | 0 kts | 284° |